createdAt,value
2022-11-15T00:02:11.310Z,54.00
2022-11-15T00:05:05.936Z,54.20
2022-11-15T00:07:59.245Z,54.10
2022-11-15T00:10:59.252Z,54.30
2022-11-15T00:13:52.124Z,54.20
2022-11-15T00:16:45.332Z,54.30
2022-11-15T00:19:38.499Z,54.30
2022-11-15T00:22:35.396Z,54.30
2022-11-15T00:25:28.124Z,54.50
2022-11-15T00:28:21.338Z,54.40
2022-11-15T00:31:15.542Z,54.40
2022-11-15T00:34:08.414Z,54.30
2022-11-15T00:37:01.311Z,54.20
2022-11-15T00:39:55.849Z,54.20
2022-11-15T00:42:49.163Z,54.20
2022-11-15T00:45:42.142Z,54.00
2022-11-15T00:48:35.243Z,53.90
2022-11-15T00:51:28.487Z,53.70
2022-11-15T00:54:21.150Z,53.40
2022-11-15T00:57:15.918Z,53.20
2022-11-15T01:00:10.246Z,53.00
2022-11-15T01:03:03.275Z,52.70
2022-11-15T01:06:00.499Z,52.40
2022-11-15T01:08:53.631Z,52.30
2022-11-15T01:11:47.183Z,52.00
2022-11-15T01:14:41.450Z,51.90
2022-11-15T01:17:34.193Z,51.70
2022-11-15T01:20:27.568Z,51.60
2022-11-15T01:23:20.421Z,51.40
2022-11-15T01:26:15.510Z,51.30
2022-11-15T01:29:08.175Z,51.20
2022-11-15T01:32:02.796Z,51.10
2022-11-15T01:34:56.204Z,51.00
2022-11-15T01:37:49.085Z,50.90
2022-11-15T01:40:42.184Z,51.40
2022-11-15T01:43:37.086Z,50.70
2022-11-15T01:46:33.109Z,50.70
2022-11-15T01:49:29.611Z,50.60
2022-11-15T01:52:25.875Z,50.60
2022-11-15T01:55:23.380Z,50.50
2022-11-15T01:58:16.345Z,50.50
2022-11-15T02:01:10.040Z,50.40
2022-11-15T02:04:08.761Z,50.40
2022-11-15T02:07:05.282Z,50.40
2022-11-15T02:10:01.947Z,50.30
2022-11-15T02:12:56.827Z,50.30
2022-11-15T02:16:02.823Z,50.30
2022-11-15T02:19:04.740Z,50.30
2022-11-15T02:22:13.074Z,50.40
2022-11-15T02:25:22.679Z,50.30
2022-11-15T02:28:40.270Z,50.40
2022-11-15T02:31:41.747Z,50.30
2022-11-15T02:34:44.274Z,50.30
2022-11-15T02:37:45.844Z,50.30
2022-11-15T02:40:48.070Z,50.30
2022-11-15T02:44:00.178Z,50.30
2022-11-15T02:47:14.049Z,50.30
2022-11-15T02:50:10.823Z,50.30
2022-11-15T02:53:04.769Z,50.30
2022-11-15T02:55:59.222Z,50.30
2022-11-15T02:59:19.415Z,50.90
2022-11-15T03:02:25.842Z,50.30
2022-11-15T03:05:25.783Z,50.30
2022-11-15T03:08:28.230Z,50.30
2022-11-15T03:11:24.109Z,50.30
2022-11-15T03:14:24.584Z,50.30
2022-11-15T03:17:23.543Z,50.30
2022-11-15T03:20:19.143Z,50.30
2022-11-15T03:23:13.325Z,50.20
2022-11-15T03:26:11.742Z,50.20
2022-11-15T03:29:11.132Z,50.20
2022-11-15T03:32:08.448Z,50.10
2022-11-15T03:35:07.114Z,50.00
2022-11-15T03:38:07.514Z,50.00
2022-11-15T03:41:01.762Z,50.00
2022-11-15T03:43:59.692Z,49.80
2022-11-15T03:47:02.608Z,49.80
2022-11-15T03:50:01.240Z,49.80
2022-11-15T03:52:57.341Z,49.70
2022-11-15T03:55:50.637Z,49.70
2022-11-15T03:58:46.722Z,49.60
2022-11-15T04:01:40.526Z,49.70
2022-11-15T04:04:33.397Z,49.70
2022-11-15T04:07:26.196Z,49.60
2022-11-15T04:10:20.709Z,49.70
2022-11-15T04:13:13.378Z,49.60
2022-11-15T04:16:06.562Z,49.70
2022-11-15T04:19:16.948Z,49.70
2022-11-15T04:22:27.785Z,49.70
2022-11-15T04:25:24.689Z,49.70
2022-11-15T04:28:21.011Z,49.70
2022-11-15T04:31:14.822Z,49.70
2022-11-15T04:34:08.459Z,49.70
2022-11-15T04:37:17.247Z,49.80
2022-11-15T04:40:10.847Z,49.80
2022-11-15T04:43:06.646Z,49.80
2022-11-15T04:45:59.540Z,49.90
2022-11-15T04:48:57.983Z,49.90
2022-11-15T04:51:52.507Z,49.90
2022-11-15T04:54:45.661Z,49.90
2022-11-15T04:57:38.929Z,49.90
2022-11-15T05:00:34.169Z,49.90
2022-11-15T05:03:44.484Z,50.00
2022-11-15T05:06:37.179Z,50.00
2022-11-15T05:09:30.255Z,50.00
2022-11-15T05:12:23.585Z,50.00
2022-11-15T05:15:16.427Z,50.00
2022-11-15T05:18:11.467Z,50.00
2022-11-15T05:21:06.158Z,50.00
2022-11-15T05:23:59.268Z,50.00
2022-11-15T05:26:52.591Z,50.00
2022-11-15T05:29:45.791Z,50.00
2022-11-15T05:32:39.439Z,49.90
2022-11-15T05:35:40.662Z,49.90
2022-11-15T05:38:34.030Z,49.90
2022-11-15T05:41:33.032Z,50.00
2022-11-15T05:44:27.216Z,49.90
2022-11-15T05:47:24.324Z,50.00
2022-11-15T05:50:20.426Z,50.00
2022-11-15T05:53:17.985Z,50.00
2022-11-15T05:56:11.730Z,50.00
2022-11-15T05:59:04.940Z,49.90
2022-11-15T06:01:58.605Z,50.00
2022-11-15T06:04:51.228Z,50.00
2022-11-15T06:07:45.059Z,50.00
2022-11-15T06:10:39.909Z,50.00
2022-11-15T06:13:34.094Z,50.00
2022-11-15T06:16:27.310Z,50.00
2022-11-15T06:19:20.442Z,50.10
2022-11-15T06:22:13.352Z,50.10
2022-11-15T06:25:06.913Z,50.10
2022-11-15T06:28:02.465Z,50.10
2022-11-15T06:30:55.150Z,50.20
2022-11-15T06:33:50.546Z,50.20
2022-11-15T06:36:43.238Z,50.20
2022-11-15T06:39:36.660Z,50.20
2022-11-15T06:42:29.365Z,50.20
2022-11-15T06:45:23.946Z,50.20
2022-11-15T06:48:17.583Z,50.20
2022-11-15T06:51:10.778Z,50.20
2022-11-15T06:54:03.697Z,50.20
2022-11-15T06:56:56.650Z,50.20
2022-11-15T06:59:49.626Z,50.20
2022-11-15T07:02:43.514Z,50.10
2022-11-15T07:05:36.841Z,50.10
2022-11-15T07:08:30.551Z,50.20
2022-11-15T07:11:23.527Z,50.30
2022-11-15T07:14:16.473Z,50.90
2022-11-15T07:17:09.652Z,51.10
2022-11-15T07:20:04.533Z,51.20
2022-11-15T07:23:02.055Z,51.40
2022-11-15T07:25:55.680Z,51.60
2022-11-15T07:28:48.573Z,51.70
2022-11-15T07:31:41.547Z,51.90
2022-11-15T07:34:34.502Z,52.00
2022-11-15T07:37:28.964Z,52.20
2022-11-15T07:40:22.585Z,52.00
2022-11-15T07:43:15.780Z,52.50
2022-11-15T07:46:10.800Z,53.00
2022-11-15T07:49:03.781Z,53.70
2022-11-15T07:51:56.596Z,53.80
2022-11-15T07:54:50.918Z,53.30
2022-11-15T07:57:44.620Z,53.40
2022-11-15T08:00:38.557Z,53.50
2022-11-15T08:03:31.429Z,53.50
2022-11-15T08:06:24.265Z,53.50
2022-11-15T08:09:17.663Z,53.70
2022-11-15T08:12:12.003Z,53.70
2022-11-15T08:15:06.847Z,53.80
2022-11-15T08:18:00.732Z,53.90
2022-11-15T08:20:53.361Z,53.90
2022-11-15T08:23:46.812Z,54.00
2022-11-15T08:26:40.358Z,54.00
2022-11-15T08:29:34.794Z,54.20
2022-11-15T08:36:15.087Z,54.40
2022-11-15T08:39:08.548Z,54.30
2022-11-15T08:42:01.485Z,54.50
2022-11-15T08:44:55.914Z,54.50
2022-11-15T08:47:53.992Z,54.50
2022-11-15T08:50:47.548Z,54.60
2022-11-15T08:53:41.063Z,54.60
2022-11-15T08:56:34.650Z,54.60
2022-11-15T08:59:28.048Z,54.60
2022-11-15T09:02:23.009Z,54.60
2022-11-15T09:05:17.407Z,54.50
2022-11-15T09:08:40.399Z,54.50
2022-11-15T09:11:24.197Z,54.60
2022-11-15T09:14:17.722Z,54.60
2022-11-15T09:17:11.030Z,54.60
2022-11-15T09:20:07.195Z,54.50
2022-11-15T09:23:02.727Z,54.60
2022-11-15T09:26:00.872Z,54.60
2022-11-15T09:28:53.572Z,54.70
2022-11-15T09:31:46.614Z,54.70
2022-11-15T09:34:39.685Z,54.70
2022-11-15T09:37:35.211Z,54.90
2022-11-15T09:40:29.136Z,54.80
2022-11-15T09:43:34.425Z,54.70
2022-11-15T09:46:39.854Z,54.50
2022-11-15T09:49:34.052Z,54.60
2022-11-15T09:52:28.263Z,54.20
2022-11-15T09:55:33.263Z,54.00
2022-11-15T09:58:34.308Z,53.70
2022-11-15T10:01:41.381Z,53.80
2022-11-15T10:04:34.909Z,53.80
2022-11-15T10:07:33.063Z,53.60
2022-11-15T10:10:36.828Z,53.20
2022-11-15T10:13:33.518Z,52.90
2022-11-15T10:16:47.308Z,52.70
2022-11-15T10:19:49.926Z,52.80
2022-11-15T10:22:48.971Z,52.70
2022-11-15T10:25:44.404Z,52.60
2022-11-15T10:28:37.724Z,52.40
2022-11-15T10:31:31.397Z,52.40
2022-11-15T10:34:25.917Z,52.30
2022-11-15T10:37:30.109Z,52.20
2022-11-15T10:40:26.367Z,52.20
2022-11-15T10:43:21.262Z,52.20
2022-11-15T10:46:45.218Z,52.30
2022-11-15T10:49:36.448Z,52.40
2022-11-15T10:52:31.733Z,52.50
2022-11-15T10:55:28.417Z,52.40
2022-11-15T10:58:35.541Z,52.50
2022-11-15T11:01:30.916Z,52.60
2022-11-15T11:04:24.464Z,52.70
2022-11-15T11:07:24.448Z,52.70
2022-11-15T11:10:51.110Z,52.80
2022-11-15T11:13:38.146Z,52.80
2022-11-15T11:16:47.747Z,52.70
2022-11-15T11:19:57.502Z,52.80
2022-11-15T11:23:03.007Z,52.80
2022-11-15T11:26:04.309Z,52.70
2022-11-15T11:29:12.198Z,52.70
2022-11-15T11:32:17.199Z,52.80
2022-11-15T11:35:16.318Z,52.90
2022-11-15T11:38:21.398Z,52.80
2022-11-15T11:41:26.017Z,52.70
2022-11-15T11:44:40.492Z,52.60
2022-11-15T11:47:38.319Z,52.70
2022-11-15T11:50:32.445Z,52.80
2022-11-15T11:53:30.749Z,52.80
2022-11-15T11:56:28.599Z,53.10
2022-11-15T11:59:27.872Z,53.20
2022-11-15T12:02:26.710Z,53.20
2022-11-15T12:05:25.568Z,53.10
2022-11-15T12:08:32.998Z,53.10
2022-11-15T12:11:32.626Z,53.20
2022-11-15T12:14:34.597Z,53.30
2022-11-15T12:17:32.764Z,53.60
2022-11-15T12:20:28.748Z,53.70
2022-11-15T12:23:26.456Z,53.60
2022-11-15T12:26:22.711Z,53.50
2022-11-15T12:29:22.151Z,53.10
2022-11-15T12:32:27.564Z,52.90
2022-11-15T12:35:28.687Z,52.90
2022-11-15T12:38:55.028Z,52.80
2022-11-15T12:42:19.308Z,52.80
2022-11-15T12:45:27.951Z,52.70
2022-11-15T12:48:57.463Z,52.60
2022-11-15T12:52:07.032Z,52.70
2022-11-15T12:55:24.497Z,52.90
2022-11-15T12:58:42.255Z,53.00
2022-11-15T13:02:01.765Z,53.20
2022-11-15T13:05:17.200Z,53.40
2022-11-15T13:08:10.750Z,53.50
2022-11-15T13:11:38.067Z,53.90
2022-11-15T13:14:56.748Z,54.00
2022-11-15T13:17:51.128Z,54.20
2022-11-15T13:20:47.340Z,54.30
2022-11-15T13:23:40.750Z,54.70
2022-11-15T13:26:34.222Z,54.60
2022-11-15T13:29:27.934Z,54.40
2022-11-15T13:32:22.486Z,54.40
2022-11-15T13:35:22.186Z,54.30
2022-11-15T13:38:27.637Z,54.20
2022-11-15T13:41:22.197Z,54.20
2022-11-15T13:44:22.593Z,54.20
2022-11-15T13:47:17.749Z,54.10
2022-11-15T13:50:13.592Z,54.00
2022-11-15T13:53:07.575Z,54.10
2022-11-15T13:56:04.274Z,54.10
2022-11-15T13:58:57.827Z,54.00
2022-11-15T14:01:52.649Z,54.00
2022-11-15T14:04:50.090Z,54.00
2022-11-15T14:07:54.996Z,53.90
2022-11-15T14:10:48.081Z,54.00
2022-11-15T14:13:42.572Z,54.00
2022-11-15T14:16:37.910Z,54.00
2022-11-15T14:19:40.581Z,54.10
2022-11-15T14:22:34.372Z,54.10
2022-11-15T14:25:28.830Z,54.00
2022-11-15T14:28:34.362Z,54.10
2022-11-15T14:31:29.434Z,54.70
2022-11-15T14:34:23.399Z,53.90
2022-11-15T14:37:26.751Z,53.90
2022-11-15T14:40:21.698Z,53.90
2022-11-15T14:43:15.398Z,53.90
2022-11-15T14:46:09.172Z,53.80
2022-11-15T14:49:03.212Z,53.90
2022-11-15T14:51:56.128Z,53.80
2022-11-15T14:54:49.195Z,53.90
2022-11-15T14:57:42.014Z,53.90
2022-11-15T15:00:35.748Z,53.90
2022-11-15T15:03:28.860Z,53.90
2022-11-15T15:06:23.250Z,53.80
2022-11-15T15:09:15.804Z,53.80
2022-11-15T15:12:17.825Z,53.80
2022-11-15T15:15:16.316Z,54.70
2022-11-15T15:18:12.199Z,55.10
2022-11-15T15:21:07.930Z,55.50
2022-11-15T15:24:03.089Z,55.60
2022-11-15T15:26:55.992Z,55.80
2022-11-15T15:29:48.792Z,55.90
2022-11-15T15:32:42.029Z,55.90
2022-11-15T15:35:36.547Z,56.00
2022-11-15T15:38:30.167Z,56.00
2022-11-15T15:41:25.451Z,56.00
2022-11-15T15:44:21.601Z,56.40
2022-11-15T15:47:17.320Z,56.20
2022-11-15T15:50:22.447Z,56.60
2022-11-15T15:53:16.521Z,56.60
2022-11-15T15:56:10.805Z,56.50
2022-11-15T15:59:05.865Z,56.30
2022-11-15T16:01:59.122Z,56.30
2022-11-15T16:04:51.745Z,56.20
2022-11-15T16:07:45.728Z,56.30
2022-11-15T16:10:39.293Z,56.30
2022-11-15T16:13:33.026Z,56.40
2022-11-15T16:16:27.655Z,56.40
2022-11-15T16:19:20.916Z,56.30
2022-11-15T16:22:13.999Z,56.30
2022-11-15T16:25:07.323Z,56.90
2022-11-15T16:27:59.914Z,56.20
2022-11-15T16:31:03.057Z,56.20
2022-11-15T16:33:57.263Z,56.20
2022-11-15T16:36:50.384Z,56.20
2022-11-15T16:39:44.042Z,56.20
2022-11-15T16:42:37.156Z,56.90
2022-11-15T16:45:32.013Z,56.30
2022-11-15T16:48:26.783Z,56.20
2022-11-15T16:51:22.000Z,56.20
2022-11-15T16:54:14.965Z,56.10
2022-11-15T16:57:11.280Z,56.10
2022-11-15T17:00:04.632Z,56.00
2022-11-15T17:02:59.159Z,56.00
2022-11-15T17:05:51.970Z,56.00
2022-11-15T17:08:47.612Z,55.90
2022-11-15T17:11:42.445Z,56.00
2022-11-15T17:14:35.909Z,55.90
2022-11-15T17:17:29.430Z,55.90
2022-11-15T17:20:25.061Z,55.90
2022-11-15T17:23:17.831Z,55.90
2022-11-15T17:26:31.977Z,55.90
2022-11-15T17:29:27.051Z,55.80
2022-11-15T17:32:20.204Z,55.90
2022-11-15T17:35:15.584Z,55.90
2022-11-15T17:38:14.398Z,56.50
2022-11-15T17:41:10.891Z,55.90
2022-11-15T17:44:05.897Z,55.90
2022-11-15T17:46:59.678Z,55.90
2022-11-15T17:49:53.240Z,55.90
2022-11-15T17:52:46.114Z,55.90
2022-11-15T17:55:39.163Z,56.00
2022-11-15T17:58:32.241Z,56.00
2022-11-15T18:01:28.344Z,56.10
2022-11-15T18:04:21.214Z,56.10
2022-11-15T18:07:14.617Z,56.10
2022-11-15T18:10:09.166Z,56.10
2022-11-15T18:13:02.312Z,56.10
2022-11-15T18:15:56.038Z,56.10
2022-11-15T18:18:50.653Z,56.10
2022-11-15T18:21:57.626Z,56.10
2022-11-15T18:24:50.872Z,56.10
2022-11-15T18:27:43.729Z,56.00
2022-11-15T18:30:41.487Z,56.00
2022-11-15T18:33:35.852Z,56.10
2022-11-15T18:36:31.691Z,56.20
2022-11-15T18:39:24.785Z,56.40
2022-11-15T18:42:18.621Z,56.50
2022-11-15T18:45:12.221Z,56.60
2022-11-15T18:48:05.515Z,56.70
2022-11-15T18:51:05.155Z,57.30
2022-11-15T18:54:01.921Z,56.90
2022-11-15T18:56:55.163Z,57.00
2022-11-15T18:59:48.131Z,57.10
2022-11-15T19:02:41.295Z,57.10
2022-11-15T19:05:35.285Z,57.20
2022-11-15T19:08:32.862Z,57.20
2022-11-15T19:11:31.317Z,57.20
2022-11-15T19:14:26.135Z,57.20
2022-11-15T19:17:19.278Z,57.20
2022-11-15T19:20:12.670Z,57.10
2022-11-15T19:23:06.069Z,57.10
2022-11-15T19:26:01.287Z,57.20
2022-11-15T19:28:57.333Z,57.20
2022-11-15T19:31:50.126Z,57.20
2022-11-15T19:34:43.459Z,57.30
2022-11-15T19:37:36.403Z,57.30
2022-11-15T19:40:31.160Z,57.20
2022-11-15T19:43:24.180Z,57.10
2022-11-15T19:46:20.446Z,57.10
2022-11-15T19:49:12.930Z,57.10
2022-11-15T19:52:06.456Z,57.10
2022-11-15T19:54:59.159Z,57.00
2022-11-15T19:57:52.283Z,57.00
2022-11-15T20:00:45.585Z,57.10
2022-11-15T20:03:40.836Z,56.90
2022-11-15T20:06:35.871Z,56.70
2022-11-15T20:09:29.152Z,56.50
2022-11-15T20:12:22.095Z,56.40
2022-11-15T20:15:15.193Z,56.40
2022-11-15T20:18:08.914Z,56.20
2022-11-15T20:21:06.271Z,56.10
2022-11-15T20:23:58.863Z,56.10
2022-11-15T20:26:51.991Z,56.00
2022-11-15T20:29:45.682Z,56.00
2022-11-15T20:32:39.677Z,55.90
2022-11-15T20:35:33.286Z,56.50
2022-11-15T20:38:27.805Z,55.90
2022-11-15T20:41:21.444Z,55.80
2022-11-15T20:44:14.763Z,55.80
2022-11-15T20:47:08.334Z,55.80
2022-11-15T20:50:20.885Z,55.80
2022-11-15T20:53:17.421Z,55.70
2022-11-15T20:56:14.922Z,55.80
2022-11-15T20:59:08.391Z,55.80
2022-11-15T21:02:02.530Z,55.70
2022-11-15T21:04:55.832Z,55.80
2022-11-15T21:07:49.169Z,55.70
2022-11-15T21:11:00.575Z,55.70
2022-11-15T21:13:55.429Z,55.70
2022-11-15T21:16:48.471Z,55.60
2022-11-15T21:19:41.568Z,55.60
2022-11-15T21:22:35.468Z,55.70
2022-11-15T21:25:28.617Z,55.70
2022-11-15T21:28:22.333Z,55.70
2022-11-15T21:31:16.802Z,55.60
2022-11-15T21:34:10.342Z,55.80
2022-11-15T21:37:03.405Z,55.70
2022-11-15T21:39:56.160Z,56.30
2022-11-15T21:42:49.294Z,55.60
2022-11-15T21:45:42.265Z,55.60
2022-11-15T21:48:37.338Z,55.70
2022-11-15T21:51:31.281Z,55.70
2022-11-15T21:54:24.457Z,55.60
2022-11-15T21:57:18.873Z,55.60
2022-11-15T22:00:31.356Z,55.60
2022-11-15T22:03:24.001Z,55.60
2022-11-15T22:06:18.960Z,55.60
2022-11-15T22:09:12.327Z,55.60
2022-11-15T22:12:05.427Z,55.60
2022-11-15T22:14:58.479Z,55.60
2022-11-15T22:18:00.336Z,55.60
2022-11-15T22:20:55.039Z,55.60
2022-11-15T22:23:49.920Z,55.60
2022-11-15T22:26:43.307Z,55.50
2022-11-15T22:29:36.674Z,55.60
2022-11-15T22:32:30.463Z,55.50
2022-11-15T22:35:23.566Z,55.60
2022-11-15T22:38:16.510Z,56.10
2022-11-15T22:41:11.003Z,55.60
2022-11-15T22:44:04.872Z,55.60
2022-11-15T22:46:58.900Z,55.70
2022-11-15T22:49:52.572Z,55.60
2022-11-15T22:52:45.622Z,55.60
2022-11-15T22:55:39.283Z,55.60
2022-11-15T22:58:34.558Z,55.60
2022-11-15T23:01:28.484Z,55.60
2022-11-15T23:04:21.636Z,55.60
2022-11-15T23:07:14.268Z,55.70
2022-11-15T23:10:25.935Z,55.70
2022-11-15T23:13:19.824Z,55.60
2022-11-15T23:16:23.712Z,55.60
2022-11-15T23:19:17.489Z,55.60
2022-11-15T23:22:27.747Z,55.60
2022-11-15T23:25:21.221Z,55.60
2022-11-15T23:28:14.501Z,55.70
2022-11-15T23:31:26.181Z,55.50
2022-11-15T23:34:22.483Z,55.60
2022-11-15T23:37:16.535Z,55.70
2022-11-15T23:40:10.921Z,55.80
2022-11-15T23:43:04.398Z,56.00
2022-11-15T23:45:57.679Z,56.00
2022-11-15T23:48:51.541Z,56.10
2022-11-15T23:51:46.485Z,56.20
2022-11-15T23:54:39.343Z,56.30
2022-11-15T23:57:32.918Z,56.30
